createdAt,value
2023-10-15T00:00:28.464Z,3.40
2023-10-15T00:02:55.693Z,2.58
2023-10-15T00:05:26.644Z,3.45
2023-10-15T00:07:54.224Z,3.20
2023-10-15T00:10:23.376Z,3.65
2023-10-15T00:12:52.642Z,2.22
2023-10-15T00:15:21.094Z,2.55
2023-10-15T00:17:52.839Z,2.53
2023-10-15T00:20:21.484Z,2.80
2023-10-15T00:22:52.437Z,2.58
2023-10-15T00:25:21.006Z,3.22
2023-10-15T00:27:54.278Z,2.67
2023-10-15T00:30:22.548Z,2.08
2023-10-15T00:32:53.545Z,3.65
2023-10-15T00:35:21.327Z,2.50
2023-10-15T00:40:26.979Z,2.77
2023-10-15T00:42:55.504Z,2.95
2023-10-15T00:48:07.078Z,2.38
2023-10-15T00:50:43.380Z,3.67
2023-10-15T00:53:25.798Z,2.60
2023-10-15T00:56:06.376Z,2.10
2023-10-15T00:58:33.838Z,3.10
2023-10-15T01:01:21.955Z,3.58
2023-10-15T01:04:00.649Z,3.97
2023-10-15T01:06:35.581Z,3.13
2023-10-15T01:09:11.987Z,4.53
2023-10-15T01:11:52.664Z,6.63
2023-10-15T01:14:33.284Z,4.20
2023-10-15T01:17:01.655Z,4.35
2023-10-15T01:19:33.863Z,3.75
2023-10-15T01:22:05.020Z,4.35
2023-10-15T01:24:39.273Z,4.50
2023-10-15T01:27:09.316Z,4.50
2023-10-15T01:29:42.718Z,4.93
2023-10-15T01:32:20.788Z,5.15
2023-10-15T01:34:50.569Z,5.25
2023-10-15T01:37:25.857Z,8.27
2023-10-15T01:40:02.105Z,11.05
2023-10-15T01:42:29.454Z,8.23
2023-10-15T01:45:09.900Z,10.95
2023-10-15T01:47:37.855Z,10.95
2023-10-15T01:50:11.383Z,11.90
2023-10-15T01:52:41.492Z,12.32
2023-10-15T01:55:08.782Z,10.27
2023-10-15T01:57:40.366Z,16.00
2023-10-15T02:00:15.834Z,10.43
2023-10-15T02:02:46.546Z,12.60
2023-10-15T02:05:42.179Z,12.13
2023-10-15T02:08:14.815Z,15.35
2023-10-15T02:10:47.481Z,14.90
2023-10-15T02:13:18.824Z,11.52
2023-10-15T02:15:50.457Z,12.23
2023-10-15T02:18:20.484Z,8.43
2023-10-15T02:21:01.672Z,9.50
2023-10-15T02:23:34.241Z,8.35
2023-10-15T02:26:01.535Z,10.10
2023-10-15T02:28:37.134Z,10.18
2023-10-15T02:31:04.369Z,5.90
2023-10-15T02:33:31.943Z,5.32
2023-10-15T02:38:35.186Z,5.25
2023-10-15T02:41:07.070Z,4.20
2023-10-15T02:43:41.819Z,3.08
2023-10-15T02:46:23.978Z,1.67
2023-10-15T02:48:56.482Z,4.55
2023-10-15T02:51:27.897Z,4.43
2023-10-15T02:54:02.475Z,3.55
2023-10-15T02:56:29.714Z,4.75
2023-10-15T02:58:57.787Z,5.20
2023-10-15T03:01:26.078Z,3.70
2023-10-15T03:03:56.248Z,4.70
2023-10-15T03:06:32.855Z,3.45
2023-10-15T03:09:00.738Z,1.45
2023-10-15T03:11:39.430Z,2.80
2023-10-15T03:14:07.915Z,3.33
2023-10-15T03:16:36.301Z,2.05
2023-10-15T03:19:20.752Z,2.40
2023-10-15T03:21:48.848Z,1.60
2023-10-15T03:24:17.319Z,2.80
2023-10-15T03:26:48.652Z,1.70
2023-10-15T03:29:16.176Z,2.72
2023-10-15T03:31:50.071Z,2.20
2023-10-15T03:34:24.128Z,1.85
2023-10-15T03:36:52.644Z,3.38
2023-10-15T03:39:43.557Z,2.22
2023-10-15T03:42:11.253Z,1.45
2023-10-15T03:44:46.727Z,1.45
2023-10-15T03:47:23.257Z,1.65
2023-10-15T03:49:52.457Z,1.63
2023-10-15T03:52:23.560Z,1.17
2023-10-15T03:54:51.635Z,0.60
2023-10-15T03:57:20.356Z,0.90
2023-10-15T03:59:53.995Z,1.30
2023-10-15T04:02:40.820Z,1.80
2023-10-15T04:05:13.504Z,2.10
2023-10-15T04:07:49.247Z,3.50
2023-10-15T04:10:24.464Z,4.00
2023-10-15T04:12:51.833Z,4.60
2023-10-15T04:15:18.874Z,5.30
2023-10-15T04:17:46.807Z,6.20
2023-10-15T04:20:27.439Z,5.13
2023-10-15T04:22:55.245Z,3.50
2023-10-15T04:25:26.296Z,5.38
2023-10-15T04:27:54.858Z,5.05
2023-10-15T04:30:22.408Z,5.20
2023-10-15T04:32:49.457Z,4.75
2023-10-15T04:35:19.863Z,3.97
2023-10-15T04:37:57.531Z,4.30
2023-10-15T04:40:25.009Z,3.65
2023-10-15T04:45:43.140Z,2.45
2023-10-15T04:48:16.891Z,0.63
2023-10-15T04:50:44.898Z,2.30
2023-10-15T04:53:24.848Z,2.97
2023-10-15T04:55:53.767Z,2.78
2023-10-15T04:58:21.756Z,3.25
2023-10-15T05:00:50.128Z,3.03
2023-10-15T05:03:18.101Z,2.90
2023-10-15T05:05:45.962Z,3.50
2023-10-15T05:08:13.808Z,3.63
2023-10-15T05:10:51.117Z,3.67
2023-10-15T05:13:19.112Z,4.47
2023-10-15T05:18:15.960Z,2.85
2023-10-15T05:20:44.361Z,5.05
2023-10-15T05:23:11.642Z,3.00
2023-10-15T05:25:42.227Z,5.05
2023-10-15T05:28:10.336Z,4.97
2023-10-15T05:30:39.007Z,4.53
2023-10-15T05:33:07.483Z,5.97
2023-10-15T05:35:35.858Z,5.15
2023-10-15T05:38:03.094Z,6.03
2023-10-15T05:40:31.075Z,5.32
2023-10-15T05:42:58.158Z,6.30
2023-10-15T05:45:25.287Z,5.28
2023-10-15T05:47:52.507Z,5.35
2023-10-15T05:50:19.974Z,4.95
2023-10-15T05:52:49.223Z,5.13
2023-10-15T05:55:16.220Z,5.63
2023-10-15T05:57:44.513Z,6.05
2023-10-15T06:00:21.358Z,4.65
2023-10-15T06:02:52.105Z,5.63
2023-10-15T06:05:19.171Z,4.13
2023-10-15T06:07:47.498Z,6.03
2023-10-15T06:10:15.382Z,3.40
2023-10-15T06:12:43.662Z,5.57
2023-10-15T06:15:21.905Z,5.85
2023-10-15T06:17:51.624Z,6.47
2023-10-15T06:20:18.704Z,6.30
2023-10-15T06:22:47.709Z,6.10
2023-10-15T06:25:18.803Z,3.65
2023-10-15T06:27:46.660Z,5.15
2023-10-15T06:30:20.064Z,6.28
2023-10-15T06:32:51.366Z,5.63
2023-10-15T06:35:19.919Z,6.18
2023-10-15T06:37:51.542Z,5.45
2023-10-15T06:40:23.786Z,6.43
2023-10-15T06:42:53.421Z,6.45
2023-10-15T06:45:21.441Z,5.80
2023-10-15T06:47:53.183Z,6.57
2023-10-15T06:50:24.743Z,5.38
2023-10-15T06:52:53.958Z,6.97
2023-10-15T06:55:21.819Z,3.92
2023-10-15T06:57:49.984Z,4.68
2023-10-15T07:00:27.508Z,5.43
2023-10-15T07:02:57.486Z,4.40
2023-10-15T07:05:27.019Z,4.28
2023-10-15T07:07:59.043Z,4.10
2023-10-15T07:10:39.376Z,3.80
2023-10-15T07:13:07.455Z,4.40
2023-10-15T07:15:37.999Z,3.58
2023-10-15T07:18:05.648Z,4.38
2023-10-15T07:23:02.797Z,2.33
2023-10-15T07:25:29.888Z,3.97
2023-10-15T07:27:58.627Z,4.22
2023-10-15T07:30:26.721Z,5.40
2023-10-15T07:32:55.712Z,3.88
2023-10-15T07:35:25.332Z,3.45
2023-10-15T07:37:53.224Z,4.38
2023-10-15T07:40:27.139Z,4.22
2023-10-15T07:43:00.876Z,3.92
2023-10-15T07:45:30.915Z,3.13
2023-10-15T07:48:02.644Z,3.70
2023-10-15T07:50:31.735Z,3.72
2023-10-15T07:52:59.099Z,4.13
2023-10-15T07:55:27.130Z,3.70
2023-10-15T07:57:54.580Z,4.05
2023-10-15T08:00:25.161Z,3.50
2023-10-15T08:03:00.490Z,2.45
2023-10-15T08:05:38.968Z,3.50
2023-10-15T08:08:07.017Z,1.52
2023-10-15T08:10:36.374Z,2.83
2023-10-15T08:13:05.161Z,1.65
2023-10-15T08:15:34.728Z,0.65
2023-10-15T08:18:03.144Z,1.80
2023-10-15T08:20:30.395Z,2.47
2023-10-15T08:22:57.274Z,3.00
2023-10-15T08:25:24.202Z,0.77
2023-10-15T08:27:51.227Z,1.42
2023-10-15T08:30:19.030Z,1.92
2023-10-15T08:32:47.556Z,2.10
2023-10-15T08:35:16.866Z,2.08
2023-10-15T08:37:44.844Z,2.33
2023-10-15T08:40:20.801Z,1.92
2023-10-15T08:42:58.362Z,0.50
2023-10-15T08:47:54.597Z,1.38
2023-10-15T08:50:23.729Z,0.93
2023-10-15T08:52:55.007Z,1.30
2023-10-15T08:55:24.093Z,1.55
2023-10-15T08:57:58.057Z,0.77
2023-10-15T09:00:32.269Z,0.80
2023-10-15T09:03:01.961Z,0.77
2023-10-15T09:05:35.133Z,0.90
2023-10-15T09:08:08.790Z,1.00
2023-10-15T09:10:37.792Z,0.75
2023-10-15T09:13:06.255Z,0.80
2023-10-15T09:15:33.453Z,0.40
2023-10-15T09:18:01.127Z,0.52
2023-10-15T09:20:29.102Z,1.23
2023-10-15T09:23:02.967Z,0.70
2023-10-15T09:25:31.609Z,0.77
2023-10-15T09:30:33.203Z,0.75
2023-10-15T09:33:00.225Z,0.55
2023-10-15T09:35:27.187Z,1.08
2023-10-15T09:37:57.345Z,0.73
2023-10-15T09:40:32.435Z,2.10
2023-10-15T09:43:00.887Z,1.10
2023-10-15T09:45:31.834Z,1.10
2023-10-15T09:47:59.243Z,0.93
2023-10-15T09:50:29.324Z,0.90
2023-10-15T09:52:57.998Z,0.77
2023-10-15T09:55:30.316Z,0.82
2023-10-15T09:57:59.442Z,0.88
2023-10-15T10:00:47.458Z,0.40
2023-10-15T10:03:48.980Z,0.32
2023-10-15T10:06:16.717Z,1.27
2023-10-15T10:08:59.645Z,0.93
2023-10-15T10:11:39.677Z,1.35
2023-10-15T10:14:49.669Z,0.75
2023-10-15T10:17:19.366Z,0.60
2023-10-15T10:19:53.447Z,0.43
2023-10-15T10:22:30.482Z,0.55
2023-10-15T10:25:01.095Z,0.73
2023-10-15T10:27:28.336Z,0.63
2023-10-15T10:30:31.897Z,0.70
2023-10-15T10:32:59.453Z,0.50
2023-10-15T10:38:07.026Z,0.60
2023-10-15T10:40:58.040Z,0.50
2023-10-15T10:43:27.225Z,0.35
2023-10-15T10:45:55.818Z,0.73
2023-10-15T10:48:32.737Z,1.00
2023-10-15T10:51:16.666Z,0.85
2023-10-15T10:53:59.035Z,1.33
2023-10-15T10:56:46.309Z,0.70
2023-10-15T10:59:16.779Z,0.60
2023-10-15T11:01:49.847Z,1.08
2023-10-15T11:04:17.468Z,0.70
2023-10-15T11:06:50.097Z,0.32
2023-10-15T11:09:17.186Z,0.77
2023-10-15T11:11:45.549Z,0.47
2023-10-15T11:14:14.045Z,0.70
2023-10-15T11:16:43.739Z,0.82
2023-10-15T11:19:17.783Z,0.35
2023-10-15T11:21:48.362Z,1.33
2023-10-15T11:24:18.752Z,0.85
2023-10-15T11:26:46.849Z,1.00
2023-10-15T11:29:23.233Z,1.15
2023-10-15T11:31:55.029Z,0.30
2023-10-15T11:34:23.993Z,0.55
2023-10-15T11:36:53.212Z,0.40
2023-10-15T11:39:26.939Z,0.63
2023-10-15T11:41:57.724Z,0.30
2023-10-15T11:44:32.661Z,0.50
2023-10-15T11:47:10.308Z,0.47
2023-10-15T11:49:44.028Z,0.93
2023-10-15T11:52:18.224Z,0.50
2023-10-15T11:54:50.539Z,0.30
2023-10-15T11:57:22.390Z,1.02
2023-10-15T11:59:56.399Z,0.50
2023-10-15T12:02:25.405Z,0.50
2023-10-15T12:04:57.655Z,0.20
2023-10-15T12:07:24.481Z,0.70
2023-10-15T12:09:52.862Z,0.80
2023-10-15T12:12:20.053Z,0.73
2023-10-15T12:14:47.357Z,0.80
2023-10-15T12:17:17.236Z,0.63
2023-10-15T12:19:46.187Z,0.50
2023-10-15T12:22:17.494Z,0.43
2023-10-15T12:24:44.630Z,0.52
2023-10-15T12:27:12.492Z,0.30
2023-10-15T12:29:40.653Z,0.47
2023-10-15T12:32:12.029Z,0.82
2023-10-15T12:34:39.201Z,0.28
2023-10-15T12:37:09.623Z,0.43
2023-10-15T12:39:41.537Z,0.60
2023-10-15T12:42:10.377Z,0.55
2023-10-15T12:44:40.487Z,1.05
2023-10-15T12:47:11.446Z,0.77
2023-10-15T12:49:38.520Z,0.60
2023-10-15T12:52:09.519Z,0.75
2023-10-15T12:54:37.281Z,0.30
2023-10-15T12:59:37.290Z,0.52
2023-10-15T13:02:05.696Z,0.50
2023-10-15T13:04:32.812Z,0.55
2023-10-15T13:06:59.860Z,0.40
2023-10-15T13:09:33.908Z,0.32
2023-10-15T13:12:02.537Z,0.30
2023-10-15T13:14:29.815Z,0.55
2023-10-15T13:16:58.386Z,0.68
2023-10-15T13:19:25.556Z,0.75
2023-10-15T13:21:52.694Z,0.47
2023-10-15T13:24:19.675Z,0.40
2023-10-15T13:26:48.015Z,0.55
2023-10-15T13:29:15.845Z,0.80
2023-10-15T13:31:42.918Z,0.30
2023-10-15T13:34:10.820Z,0.25
2023-10-15T13:36:38.804Z,0.82
2023-10-15T13:39:08.149Z,0.60
2023-10-15T13:41:35.686Z,0.50
2023-10-15T13:44:02.894Z,0.40
2023-10-15T13:46:29.988Z,0.90
2023-10-15T13:48:56.976Z,0.60
2023-10-15T13:51:26.146Z,0.38
2023-10-15T13:53:53.396Z,0.60
2023-10-15T13:56:21.202Z,0.50
2023-10-15T13:58:48.528Z,0.20
2023-10-15T14:01:17.034Z,0.50
2023-10-15T14:03:45.564Z,0.22
2023-10-15T14:06:13.496Z,0.60
2023-10-15T14:11:08.724Z,0.63
2023-10-15T14:13:35.759Z,0.50
2023-10-15T14:16:04.342Z,0.30
2023-10-15T14:18:34.382Z,0.55
2023-10-15T14:21:04.593Z,0.57
2023-10-15T14:23:31.894Z,1.15
2023-10-15T14:26:01.766Z,0.95
2023-10-15T14:28:28.876Z,0.63
2023-10-15T14:30:55.989Z,0.30
2023-10-15T14:33:23.087Z,0.38
2023-10-15T14:35:54.145Z,0.60
2023-10-15T14:38:21.968Z,0.30
2023-10-15T14:43:16.284Z,0.55
2023-10-15T14:45:46.777Z,1.17
2023-10-15T14:48:20.913Z,0.65
2023-10-15T14:50:48.669Z,0.55
2023-10-15T14:53:15.855Z,0.73
2023-10-15T14:55:49.256Z,1.10
2023-10-15T14:58:21.000Z,1.30
2023-10-15T15:00:51.078Z,0.60
2023-10-15T15:03:22.566Z,0.63
2023-10-15T15:05:52.701Z,0.35
2023-10-15T15:08:20.197Z,0.80
2023-10-15T15:10:49.585Z,0.60
2023-10-15T15:13:16.876Z,0.50
2023-10-15T15:15:44.302Z,0.60
2023-10-15T15:18:11.430Z,0.65
2023-10-15T15:20:38.491Z,0.90
2023-10-15T15:23:05.607Z,0.60
2023-10-15T15:25:32.706Z,1.00
2023-10-15T15:27:59.867Z,1.10
2023-10-15T15:30:27.421Z,1.35
2023-10-15T15:32:55.062Z,0.70
2023-10-15T15:35:22.819Z,0.68
2023-10-15T15:37:49.999Z,0.90
2023-10-15T15:40:17.194Z,0.75
2023-10-15T15:42:44.429Z,0.60
2023-10-15T15:45:14.062Z,0.60
2023-10-15T15:47:41.606Z,0.50
2023-10-15T15:50:14.082Z,0.95
2023-10-15T15:52:46.017Z,0.60
2023-10-15T15:55:13.244Z,0.95
2023-10-15T15:57:40.687Z,0.70
2023-10-15T16:00:09.698Z,1.02
2023-10-15T16:02:38.677Z,1.00
2023-10-15T16:05:06.791Z,0.90
2023-10-15T16:07:34.470Z,0.90
2023-10-15T16:10:02.796Z,0.73
2023-10-15T16:12:33.566Z,0.95
2023-10-15T16:15:02.296Z,0.82
2023-10-15T16:17:29.348Z,1.10
2023-10-15T16:19:56.480Z,0.60
2023-10-15T16:22:23.754Z,1.30
2023-10-15T16:25:00.665Z,0.90
2023-10-15T16:27:33.204Z,0.80
2023-10-15T16:29:59.963Z,1.45
2023-10-15T16:32:40.190Z,0.90
2023-10-15T16:35:31.577Z,1.20
2023-10-15T16:37:59.113Z,1.15
2023-10-15T16:40:26.320Z,0.77
2023-10-15T16:42:53.230Z,1.20
2023-10-15T16:45:20.784Z,1.08
2023-10-15T16:47:53.411Z,0.60
2023-10-15T16:50:23.794Z,0.98
2023-10-15T16:52:53.892Z,0.80
2023-10-15T16:55:21.202Z,0.77
2023-10-15T16:57:50.984Z,1.08
2023-10-15T17:00:24.258Z,0.40
2023-10-15T17:02:54.560Z,0.90
2023-10-15T17:05:21.980Z,1.00
2023-10-15T17:07:49.051Z,1.20
2023-10-15T17:10:16.802Z,0.80
2023-10-15T17:12:44.156Z,0.80
2023-10-15T17:15:14.414Z,0.80
2023-10-15T17:17:55.318Z,0.77
2023-10-15T17:20:26.050Z,0.57
2023-10-15T17:23:08.348Z,0.90
2023-10-15T17:25:39.107Z,0.80
2023-10-15T17:28:06.823Z,1.17
2023-10-15T17:30:36.998Z,1.75
2023-10-15T17:33:04.904Z,0.95
2023-10-15T17:35:32.804Z,1.23
2023-10-15T17:38:00.277Z,1.25
2023-10-15T17:40:27.696Z,1.50
2023-10-15T17:42:55.030Z,1.40
2023-10-15T17:45:26.298Z,1.48
2023-10-15T17:48:04.153Z,1.48
2023-10-15T17:51:05.241Z,1.50
2023-10-15T17:59:22.424Z,1.42
2023-10-15T18:06:01.110Z,1.80
2023-10-15T18:08:13.210Z,1.30
2023-10-15T18:09:02.271Z,2.10
2023-10-15T18:12:11.472Z,1.88
2023-10-15T18:15:26.715Z,4.00
2023-10-15T18:18:51.118Z,2.67
2023-10-15T18:21:18.401Z,3.55
2023-10-15T18:23:45.672Z,4.00
2023-10-15T18:26:12.971Z,3.25
2023-10-15T18:28:39.833Z,3.42
2023-10-15T18:31:07.192Z,2.35
2023-10-15T18:33:34.556Z,2.80
2023-10-15T18:36:01.575Z,1.60
2023-10-15T18:38:28.787Z,2.53
2023-10-15T18:40:56.678Z,2.42
2023-10-15T18:43:25.029Z,2.33
2023-10-15T18:45:52.285Z,2.42
2023-10-15T18:48:24.493Z,2.63
2023-10-15T18:50:54.441Z,1.92
2023-10-15T18:53:30.595Z,2.47
2023-10-15T18:55:58.626Z,2.22
2023-10-15T18:58:28.402Z,2.50
2023-10-15T19:01:05.653Z,2.13
2023-10-15T19:03:33.456Z,1.88
2023-10-15T19:06:02.617Z,2.35
2023-10-15T19:08:31.284Z,2.17
2023-10-15T19:11:01.464Z,1.73
2023-10-15T19:13:30.807Z,2.10
2023-10-15T19:16:02.918Z,1.90
2023-10-15T19:18:32.417Z,1.90
2023-10-15T19:21:02.657Z,1.63
2023-10-15T19:23:29.948Z,1.73
2023-10-15T19:26:07.242Z,1.90
2023-10-15T19:28:40.877Z,2.13
2023-10-15T19:31:09.153Z,1.60
2023-10-15T19:33:46.561Z,2.03
2023-10-15T19:49:52.960Z,2.08
2023-10-15T20:36:15.650Z,3.10
2023-10-15T20:46:38.081Z,2.78
2023-10-15T20:50:01.045Z,3.72
2023-10-15T20:53:05.650Z,3.25
2023-10-15T21:04:45.396Z,3.28
2023-10-15T21:07:34.680Z,3.10
2023-10-15T21:10:06.751Z,3.25
2023-10-15T21:12:42.987Z,2.70
2023-10-15T21:15:27.309Z,3.63
2023-10-15T21:18:02.966Z,4.85
2023-10-15T21:20:30.163Z,4.15
2023-10-15T21:22:57.116Z,3.88
2023-10-15T21:25:24.206Z,4.28
2023-10-15T21:27:52.307Z,5.00
2023-10-15T21:30:22.155Z,4.80
2023-10-15T21:32:49.851Z,4.63
2023-10-15T21:37:44.056Z,5.28
2023-10-15T21:40:16.179Z,5.03
2023-10-15T21:42:47.801Z,4.63
2023-10-15T21:45:15.074Z,3.97
2023-10-15T21:47:43.809Z,5.22
2023-10-15T21:50:13.993Z,4.53
2023-10-15T21:52:40.765Z,4.70
2023-10-15T21:55:08.498Z,5.28
2023-10-15T22:00:05.086Z,3.53
2023-10-15T22:02:38.811Z,4.22
2023-10-15T22:05:06.330Z,3.55
2023-10-15T22:07:33.130Z,5.28
2023-10-15T22:09:59.948Z,3.53
2023-10-15T22:12:28.265Z,3.67
2023-10-15T22:14:55.274Z,2.53
2023-10-15T22:17:22.411Z,2.75
2023-10-15T22:19:49.361Z,3.95
2023-10-15T22:22:18.989Z,4.07
2023-10-15T22:24:46.196Z,2.85
2023-10-15T22:27:16.024Z,3.88
2023-10-15T22:29:45.961Z,3.53
2023-10-15T22:32:13.282Z,3.25
2023-10-15T22:34:40.432Z,4.03
2023-10-15T22:37:07.572Z,4.68
2023-10-15T22:39:38.486Z,4.25
2023-10-15T22:42:12.827Z,4.47
2023-10-15T22:44:46.057Z,4.35
2023-10-15T22:47:16.654Z,3.67
2023-10-15T22:49:43.836Z,4.38
2023-10-15T22:52:11.307Z,3.65
2023-10-15T22:54:38.389Z,3.55
2023-10-15T22:57:05.368Z,4.78
2023-10-15T22:59:32.761Z,4.40
2023-10-15T23:02:00.788Z,4.00
2023-10-15T23:04:28.626Z,3.25
2023-10-15T23:06:55.932Z,3.55
2023-10-15T23:09:23.133Z,3.35
2023-10-15T23:11:50.500Z,3.00
2023-10-15T23:14:17.415Z,3.00
2023-10-15T23:16:46.324Z,2.95
2023-10-15T23:19:17.125Z,3.00
2023-10-15T23:21:49.761Z,3.17
2023-10-15T23:24:17.538Z,3.65
2023-10-15T23:26:44.469Z,3.13
2023-10-15T23:29:11.217Z,3.80
2023-10-15T23:31:40.462Z,3.10
2023-10-15T23:34:10.141Z,3.63
2023-10-15T23:36:37.224Z,3.92
2023-10-15T23:39:06.339Z,3.13
2023-10-15T23:41:35.270Z,3.00
2023-10-15T23:44:02.360Z,3.72
2023-10-15T23:46:29.224Z,2.67
2023-10-15T23:49:00.536Z,3.07
2023-10-15T23:51:29.896Z,3.78
2023-10-15T23:53:56.955Z,3.30
2023-10-15T23:56:33.251Z,3.38
2023-10-15T23:59:03.563Z,3.40
